createdAt,value
2017-10-11T00:00:05.405Z,72.37
2017-10-11T00:00:37.185Z,72.35
2017-10-11T00:01:08.834Z,72.35
2017-10-11T00:01:40.491Z,72.17
2017-10-11T00:02:12.182Z,72.01
2017-10-11T00:02:43.878Z,72.25
2017-10-11T00:03:15.630Z,72.14
2017-10-11T00:03:47.369Z,72.15
2017-10-11T00:04:19.018Z,72.23
2017-10-11T00:04:50.662Z,72.08
2017-10-11T00:05:22.325Z,72.00
2017-10-11T00:05:54.220Z,71.99
2017-10-11T00:06:26.049Z,72.00
2017-10-11T00:06:57.809Z,72.03
2017-10-11T00:07:29.462Z,71.88
2017-10-11T00:08:01.106Z,71.88
2017-10-11T00:08:32.798Z,71.94
2017-10-11T00:09:04.501Z,71.92
2017-10-11T00:09:36.168Z,71.74
2017-10-11T00:10:07.822Z,71.92
2017-10-11T00:10:39.610Z,71.82
2017-10-11T00:11:11.261Z,71.92
2017-10-11T00:11:42.909Z,71.93
2017-10-11T00:12:14.554Z,71.99
2017-10-11T00:12:46.201Z,71.84
2017-10-11T00:13:17.849Z,72.00
2017-10-11T00:13:49.498Z,71.99
2017-10-11T00:14:21.351Z,71.74
2017-10-11T00:14:52.997Z,71.72
2017-10-11T00:15:24.694Z,71.74
2017-10-11T00:15:56.349Z,71.81
2017-10-11T00:16:28.012Z,71.83
2017-10-11T00:16:59.669Z,71.73
2017-10-11T00:17:31.331Z,71.90
2017-10-11T00:18:03.210Z,71.79
2017-10-11T00:18:34.861Z,71.68
2017-10-11T00:19:06.506Z,71.83
2017-10-11T00:19:38.214Z,71.90
2017-10-11T00:20:10.085Z,71.90
2017-10-11T00:20:41.734Z,71.83
2017-10-11T00:21:13.394Z,71.73
2017-10-11T00:21:45.056Z,71.84
2017-10-11T00:22:16.738Z,71.68
2017-10-11T00:22:50.105Z,71.62
2017-10-11T00:23:21.805Z,71.57
2017-10-11T00:23:53.526Z,71.50
2017-10-11T00:24:25.783Z,71.46
2017-10-11T00:24:58.874Z,71.48
2017-10-11T00:25:31.519Z,71.43
2017-10-11T00:26:03.418Z,71.36
2017-10-11T00:26:35.519Z,71.32
2017-10-11T00:27:07.267Z,71.38
2017-10-11T00:27:38.921Z,71.29
2017-10-11T00:28:11.078Z,71.26
2017-10-11T00:28:42.743Z,71.36
2017-10-11T00:29:14.633Z,71.26
2017-10-11T00:29:46.292Z,71.18
2017-10-11T00:30:17.945Z,71.03
2017-10-11T00:30:49.597Z,71.19
2017-10-11T00:31:21.238Z,71.08
2017-10-11T00:31:53.525Z,71.11
2017-10-11T00:32:25.238Z,71.22
2017-10-11T00:32:57.228Z,71.03
2017-10-11T00:33:28.878Z,71.08
2017-10-11T00:34:00.893Z,71.00
2017-10-11T00:34:32.712Z,71.06
2017-10-11T00:35:04.361Z,71.12
2017-10-11T00:35:36.302Z,70.99
2017-10-11T00:36:08.251Z,71.00
2017-10-11T00:36:40.703Z,71.12
2017-10-11T00:37:12.661Z,70.98
2017-10-11T00:37:44.412Z,70.90
2017-10-11T00:38:16.066Z,71.04
2017-10-11T00:38:47.998Z,70.98
2017-10-11T00:39:19.649Z,70.97
2017-10-11T00:39:51.512Z,70.89
2017-10-11T00:40:23.429Z,70.82
2017-10-11T00:40:55.125Z,70.80
2017-10-11T00:41:27.743Z,70.76
2017-10-11T00:41:59.692Z,70.73
2017-10-11T00:42:31.390Z,70.64
2017-10-11T00:43:03.034Z,70.63
2017-10-11T00:43:34.924Z,70.65
2017-10-11T00:44:06.794Z,70.65
2017-10-11T00:44:38.445Z,70.65
2017-10-11T00:45:10.093Z,70.64
2017-10-11T00:45:41.746Z,70.71
2017-10-11T00:46:13.397Z,70.60
2017-10-11T00:46:45.084Z,70.62
2017-10-11T00:47:16.734Z,70.57
2017-10-11T00:47:48.385Z,70.56
2017-10-11T00:48:20.032Z,70.56
2017-10-11T00:48:51.925Z,70.59
2017-10-11T00:49:23.603Z,70.65
2017-10-11T00:49:55.249Z,70.62
2017-10-11T00:50:26.901Z,70.63
2017-10-11T00:50:58.546Z,70.60
2017-10-11T00:51:30.194Z,70.62
2017-10-11T00:52:01.842Z,70.57
2017-10-11T00:52:33.490Z,70.62
2017-10-11T00:53:05.130Z,70.68
2017-10-11T00:53:36.782Z,70.67
2017-10-11T00:54:08.686Z,70.70
2017-10-11T00:54:40.334Z,70.62
2017-10-11T00:55:11.981Z,70.55
2017-10-11T00:55:43.630Z,70.68
2017-10-11T00:56:15.752Z,70.57
2017-10-11T00:56:48.122Z,70.63
2017-10-11T00:57:20.379Z,70.57
2017-10-11T00:57:52.601Z,70.55
2017-10-11T00:58:24.833Z,70.54
2017-10-11T00:58:56.478Z,70.73
2017-10-11T00:59:28.131Z,70.47
2017-10-11T00:59:59.790Z,70.47
2017-10-11T01:00:31.460Z,70.47
2017-10-11T01:01:03.120Z,70.68
2017-10-11T01:01:35.050Z,70.54
2017-10-11T01:02:06.705Z,70.54
2017-10-11T01:02:38.353Z,70.46
2017-10-11T01:03:10.001Z,70.51
2017-10-11T01:03:41.646Z,70.52
2017-10-11T01:04:13.297Z,70.49
2017-10-11T01:04:44.941Z,70.61
2017-10-11T01:05:16.590Z,70.55
2017-10-11T01:05:48.241Z,70.59
2017-10-11T01:06:19.889Z,70.63
2017-10-11T01:06:51.594Z,70.62
2017-10-11T01:07:23.242Z,70.64
2017-10-11T01:07:54.885Z,70.59
2017-10-11T01:08:26.529Z,70.53
2017-10-11T01:08:58.180Z,70.66
2017-10-11T01:09:29.829Z,70.68
2017-10-11T01:10:01.479Z,70.65
2017-10-11T01:10:33.126Z,70.58
2017-10-11T01:11:04.769Z,70.62
2017-10-11T01:11:36.553Z,70.56
2017-10-11T01:12:08.202Z,70.59
2017-10-11T01:12:39.858Z,70.58
2017-10-11T01:13:11.754Z,70.60
2017-10-11T01:13:43.428Z,70.67
2017-10-11T01:14:15.592Z,70.69
2017-10-11T01:14:47.285Z,70.60
2017-10-11T01:15:18.969Z,70.71
2017-10-11T01:15:50.621Z,70.62
2017-10-11T01:16:22.265Z,70.60
2017-10-11T01:16:53.975Z,70.70
2017-10-11T01:17:25.622Z,70.63
2017-10-11T01:17:57.485Z,70.63
2017-10-11T01:18:29.174Z,70.65
2017-10-11T01:19:00.826Z,70.73
2017-10-11T01:19:32.473Z,70.78
2017-10-11T01:20:04.117Z,70.83
2017-10-11T01:20:35.775Z,70.87
2017-10-11T01:21:07.429Z,71.02
2017-10-11T01:21:39.080Z,71.00
2017-10-11T01:22:10.734Z,71.02
2017-10-11T01:22:42.382Z,71.04
2017-10-11T01:23:14.029Z,71.08
2017-10-11T01:23:45.678Z,71.32
2017-10-11T01:24:17.367Z,71.21
2017-10-11T01:24:49.136Z,71.30
2017-10-11T01:25:20.790Z,71.27
2017-10-11T01:25:52.441Z,71.29
2017-10-11T01:26:24.094Z,71.20
2017-10-11T01:26:55.940Z,71.24
2017-10-11T01:27:27.590Z,71.37
2017-10-11T01:27:59.238Z,71.31
2017-10-11T01:28:30.938Z,71.32
2017-10-11T01:29:02.612Z,71.32
2017-10-11T01:29:34.254Z,71.22
2017-10-11T01:30:05.901Z,71.33
2017-10-11T01:30:37.554Z,71.29
2017-10-11T01:31:09.207Z,71.29
2017-10-11T01:31:41.049Z,71.23
2017-10-11T01:32:12.694Z,71.29
2017-10-11T01:32:44.337Z,71.26
2017-10-11T01:33:15.981Z,71.34
2017-10-11T01:33:47.686Z,71.38
2017-10-11T01:34:19.337Z,71.43
2017-10-11T01:34:50.993Z,71.42
2017-10-11T01:35:22.649Z,71.37
2017-10-11T01:35:54.538Z,71.52
2017-10-11T01:36:26.434Z,71.37
2017-10-11T01:36:58.097Z,71.44
2017-10-11T01:37:29.770Z,71.50
2017-10-11T01:38:01.419Z,71.53
2017-10-11T01:38:33.070Z,71.59
2017-10-11T01:39:04.766Z,71.46
2017-10-11T01:39:36.646Z,71.49
2017-10-11T01:40:08.473Z,71.52
2017-10-11T01:40:40.123Z,71.42
2017-10-11T01:41:11.774Z,71.50
2017-10-11T01:41:43.425Z,71.42
2017-10-11T01:42:15.082Z,71.46
2017-10-11T01:42:46.734Z,71.43
2017-10-11T01:43:18.387Z,71.49
2017-10-11T01:43:50.036Z,71.62
2017-10-11T01:44:21.731Z,71.61
2017-10-11T01:44:53.383Z,71.69
2017-10-11T01:45:25.034Z,71.65
2017-10-11T01:45:56.698Z,71.71
2017-10-11T01:46:28.347Z,71.69
2017-10-11T01:46:59.998Z,71.70
2017-10-11T01:47:31.664Z,71.74
2017-10-11T01:48:03.563Z,71.75
2017-10-11T01:48:35.258Z,71.77
2017-10-11T01:49:06.906Z,71.74
2017-10-11T01:49:38.555Z,71.80
2017-10-11T01:50:10.206Z,71.71
2017-10-11T01:50:41.861Z,71.72
2017-10-11T01:51:13.509Z,71.77
2017-10-11T01:51:45.174Z,71.66
2017-10-11T01:52:16.825Z,71.62
2017-10-11T01:52:48.474Z,71.52
2017-10-11T01:53:20.125Z,71.52
2017-10-11T01:53:51.814Z,71.64
2017-10-11T01:54:23.462Z,71.50
2017-10-11T01:54:55.117Z,71.60
2017-10-11T01:55:26.765Z,71.53
2017-10-11T01:55:58.413Z,71.83
2017-10-11T01:56:30.064Z,71.80
2017-10-11T01:57:01.714Z,71.68
2017-10-11T01:57:33.409Z,71.72
2017-10-11T01:58:05.078Z,71.62
2017-10-11T01:58:36.726Z,71.52
2017-10-11T01:59:08.380Z,71.52
2017-10-11T01:59:40.276Z,71.55
2017-10-11T02:00:11.930Z,71.59
2017-10-11T02:00:43.573Z,71.48
2017-10-11T02:01:15.255Z,71.56
2017-10-11T02:01:47.142Z,71.56
2017-10-11T02:02:18.802Z,71.49
2017-10-11T02:02:50.497Z,71.53
2017-10-11T02:03:22.375Z,71.49
2017-10-11T02:03:54.204Z,71.42
2017-10-11T02:04:25.902Z,71.42
2017-10-11T02:04:57.550Z,71.43
2017-10-11T02:05:29.199Z,71.41
2017-10-11T02:06:00.847Z,71.41
2017-10-11T02:06:32.534Z,71.30
2017-10-11T02:07:04.189Z,71.32
2017-10-11T02:07:35.840Z,71.30
2017-10-11T02:08:07.510Z,71.36
2017-10-11T02:08:39.366Z,71.22
2017-10-11T02:09:11.050Z,71.29
2017-10-11T02:09:46.988Z,71.21
2017-10-11T02:10:19.555Z,71.22
2017-10-11T02:10:51.922Z,71.21
2017-10-11T02:11:23.790Z,71.11
2017-10-11T02:11:55.450Z,71.20
2017-10-11T02:12:27.255Z,71.17
2017-10-11T02:12:59.302Z,71.14
2017-10-11T02:13:32.371Z,71.14
2017-10-11T02:14:04.121Z,71.14
2017-10-11T02:14:36.273Z,71.10
2017-10-11T02:15:08.269Z,71.09
2017-10-11T02:15:39.913Z,71.00
2017-10-11T02:16:11.566Z,71.12
2017-10-11T02:16:43.226Z,70.99
2017-10-11T02:17:15.190Z,70.94
2017-10-11T02:17:47.153Z,70.95
2017-10-11T02:18:18.805Z,70.94
2017-10-11T02:18:50.462Z,71.05
2017-10-11T02:19:22.114Z,71.02
2017-10-11T02:19:53.757Z,71.21
2017-10-11T02:20:25.418Z,71.01
2017-10-11T02:20:57.062Z,71.04
2017-10-11T02:21:28.708Z,71.11
2017-10-11T02:22:00.552Z,71.14
2017-10-11T02:22:32.206Z,71.11
2017-10-11T02:23:03.876Z,70.97
2017-10-11T02:23:35.561Z,71.02
2017-10-11T02:24:07.468Z,71.17
2017-10-11T02:24:39.158Z,71.09
2017-10-11T02:25:10.809Z,71.00
2017-10-11T02:25:42.691Z,71.15
2017-10-11T02:26:14.343Z,71.27
2017-10-11T02:26:45.995Z,71.07
2017-10-11T02:27:17.646Z,71.15
2017-10-11T02:27:49.293Z,71.12
2017-10-11T02:28:20.944Z,71.22
2017-10-11T02:28:52.832Z,71.00
2017-10-11T02:29:24.501Z,71.09
2017-10-11T02:29:56.153Z,71.00
2017-10-11T02:30:27.801Z,71.11
2017-10-11T02:30:59.448Z,70.97
2017-10-11T02:31:31.097Z,71.06
2017-10-11T02:32:02.750Z,71.02
2017-10-11T02:32:34.401Z,71.10
2017-10-11T02:33:06.068Z,71.18
2017-10-11T02:33:37.869Z,71.09
2017-10-11T02:34:09.565Z,71.46
2017-10-11T02:34:41.228Z,71.40
2017-10-11T02:35:12.887Z,71.23
2017-10-11T02:35:44.541Z,71.29
2017-10-11T02:36:16.185Z,72.07
2017-10-11T02:36:47.844Z,71.82
2017-10-11T02:37:19.498Z,70.13
2017-10-11T02:37:51.164Z,69.39
2017-10-11T02:38:23.031Z,68.47
2017-10-11T02:38:54.726Z,67.12
2017-10-11T02:39:26.386Z,67.91
2017-10-11T02:39:58.262Z,67.28
2017-10-11T02:40:29.913Z,66.64
2017-10-11T02:41:01.575Z,65.66
2017-10-11T02:41:33.221Z,65.82
2017-10-11T02:42:04.869Z,66.01
2017-10-11T02:42:36.514Z,64.75
2017-10-11T02:43:08.164Z,64.72
2017-10-11T02:43:39.816Z,65.01
2017-10-11T02:44:11.517Z,64.86
2017-10-11T02:44:43.180Z,64.20
2017-10-11T02:45:14.822Z,65.29
2017-10-11T02:45:46.478Z,65.04
2017-10-11T02:46:18.131Z,66.33
2017-10-11T02:46:49.808Z,66.77
2017-10-11T02:47:21.466Z,66.49
2017-10-11T02:47:53.125Z,67.46
2017-10-11T02:48:24.852Z,67.26
2017-10-11T02:48:56.525Z,67.14
2017-10-11T02:49:28.224Z,67.00
2017-10-11T02:49:59.886Z,66.86
2017-10-11T02:50:31.539Z,66.76
2017-10-11T02:51:03.246Z,66.62
2017-10-11T02:51:35.002Z,66.24
2017-10-11T02:52:06.659Z,65.84
2017-10-11T02:52:38.323Z,66.45
2017-10-11T02:53:09.974Z,66.75
2017-10-11T02:53:41.625Z,66.61
2017-10-11T02:54:13.287Z,66.59
2017-10-11T02:54:44.955Z,66.59
2017-10-11T02:55:16.609Z,66.60
2017-10-11T02:55:48.263Z,66.59
2017-10-11T02:56:20.082Z,66.60
2017-10-11T02:56:51.817Z,66.59
2017-10-11T02:57:23.470Z,66.80
2017-10-11T02:57:55.123Z,66.67
2017-10-11T02:58:26.773Z,66.27
2017-10-11T02:58:58.422Z,66.69
2017-10-11T02:59:30.077Z,66.90
2017-10-11T03:00:01.729Z,66.95
2017-10-11T03:00:33.524Z,66.86
2017-10-11T03:01:05.185Z,66.81
2017-10-11T03:01:36.840Z,66.71
2017-10-11T03:02:08.587Z,66.79
2017-10-11T03:02:40.234Z,66.80
2017-10-11T03:03:11.886Z,66.79
2017-10-11T03:03:43.542Z,66.53
2017-10-11T03:04:15.185Z,66.74
2017-10-11T03:04:46.966Z,66.75
2017-10-11T03:05:18.618Z,66.61
2017-10-11T03:05:50.267Z,66.57
2017-10-11T03:06:21.917Z,66.59
2017-10-11T03:06:53.570Z,66.49
2017-10-11T03:07:25.468Z,66.54
2017-10-11T03:07:57.434Z,66.59
2017-10-11T03:08:29.136Z,66.65
2017-10-11T03:09:00.798Z,66.66
2017-10-11T03:09:32.446Z,66.53
2017-10-11T03:10:04.102Z,66.53
2017-10-11T03:10:35.762Z,66.46
2017-10-11T03:11:07.413Z,66.52
2017-10-11T03:11:39.066Z,66.59
2017-10-11T03:12:10.719Z,66.50
2017-10-11T03:12:42.516Z,66.52
2017-10-11T03:13:14.169Z,66.54
2017-10-11T03:13:45.863Z,66.57
2017-10-11T03:14:17.517Z,66.57
2017-10-11T03:14:49.217Z,66.53
2017-10-11T03:15:20.866Z,66.56
2017-10-11T03:15:52.521Z,66.58
2017-10-11T03:16:24.173Z,66.56
2017-10-11T03:16:55.825Z,66.49
2017-10-11T03:17:27.479Z,66.52
2017-10-11T03:17:59.130Z,66.54
2017-10-11T03:18:30.794Z,66.54
2017-10-11T03:19:02.491Z,66.53
2017-10-11T03:19:34.151Z,66.51
2017-10-11T03:20:05.807Z,66.45
2017-10-11T03:20:37.466Z,66.49
2017-10-11T03:21:09.129Z,66.48
2017-10-11T03:21:40.781Z,66.56
2017-10-11T03:22:12.435Z,66.55
2017-10-11T03:22:44.097Z,66.59
2017-10-11T03:23:15.751Z,66.54
2017-10-11T03:23:47.406Z,66.58
2017-10-11T03:24:19.121Z,66.56
2017-10-11T03:24:50.775Z,66.56
2017-10-11T03:25:22.434Z,66.56
2017-10-11T03:25:54.091Z,66.57
2017-10-11T03:26:25.746Z,66.52
2017-10-11T03:26:57.399Z,66.47
2017-10-11T03:27:29.050Z,66.43
2017-10-11T03:28:00.708Z,66.45
2017-10-11T03:28:32.362Z,66.46
2017-10-11T03:29:04.029Z,66.47
2017-10-11T03:29:35.729Z,66.52
2017-10-11T03:30:07.379Z,66.54
2017-10-11T03:30:39.038Z,66.53
2017-10-11T03:31:10.689Z,66.56
2017-10-11T03:31:42.360Z,66.54
2017-10-11T03:32:14.014Z,66.55
2017-10-11T03:32:45.674Z,66.57
2017-10-11T03:33:17.331Z,66.53
2017-10-11T03:33:48.994Z,66.49
2017-10-11T03:34:20.652Z,66.52
2017-10-11T03:34:52.302Z,66.56
2017-10-11T03:35:23.966Z,66.51
2017-10-11T03:35:55.620Z,66.51
2017-10-11T03:36:27.274Z,66.53
2017-10-11T03:36:58.921Z,66.56
2017-10-11T03:37:30.578Z,66.60
2017-10-11T03:38:02.251Z,66.66
2017-10-11T03:38:33.906Z,66.67
2017-10-11T03:39:05.596Z,66.71
2017-10-11T03:39:37.302Z,66.72
2017-10-11T03:40:08.981Z,66.75
2017-10-11T03:40:40.689Z,66.82
2017-10-11T03:41:12.337Z,66.83
2017-10-11T03:41:43.986Z,66.86
2017-10-11T03:42:15.643Z,66.89
2017-10-11T03:42:47.294Z,66.87
2017-10-11T03:43:18.953Z,66.92
2017-10-11T03:43:50.604Z,66.95
2017-10-11T03:44:22.260Z,66.95
2017-10-11T03:44:53.914Z,66.96
2017-10-11T03:45:25.565Z,66.99
2017-10-11T03:45:57.179Z,67.01
2017-10-11T03:46:28.829Z,67.00
2017-10-11T03:47:01.516Z,67.01
2017-10-11T03:47:33.182Z,67.00
2017-10-11T03:48:04.840Z,67.08
2017-10-11T03:48:36.627Z,67.07
2017-10-11T03:49:08.285Z,67.14
2017-10-11T03:49:40.215Z,67.04
2017-10-11T03:50:11.867Z,67.10
2017-10-11T03:50:43.518Z,67.12
2017-10-11T03:51:15.180Z,67.11
2017-10-11T03:51:46.834Z,67.16
2017-10-11T03:52:18.522Z,67.13
2017-10-11T03:52:50.380Z,67.13
2017-10-11T03:53:22.038Z,67.11
2017-10-11T03:53:53.690Z,67.12
2017-10-11T03:54:25.341Z,67.16
2017-10-11T03:54:57.042Z,67.18
2017-10-11T03:55:28.698Z,67.18
2017-10-11T03:56:00.351Z,67.19
2017-10-11T03:56:32.012Z,67.23
2017-10-11T03:57:03.661Z,67.24
2017-10-11T03:57:35.316Z,67.28
2017-10-11T03:58:06.987Z,67.26
2017-10-11T03:58:38.645Z,67.27
2017-10-11T03:59:10.338Z,67.26
2017-10-11T03:59:41.994Z,67.27
2017-10-11T04:00:13.690Z,67.36
2017-10-11T04:00:45.343Z,67.38
2017-10-11T04:01:16.998Z,67.35
2017-10-11T04:01:48.654Z,67.37
2017-10-11T04:02:20.506Z,67.39
2017-10-11T04:02:52.221Z,67.41
2017-10-11T04:03:23.875Z,67.40
2017-10-11T04:03:55.525Z,67.44
2017-10-11T04:04:27.174Z,67.45
2017-10-11T04:04:59.025Z,67.43
2017-10-11T04:05:30.690Z,67.48
2017-10-11T04:06:02.341Z,67.46
2017-10-11T04:06:33.994Z,67.45
2017-10-11T04:07:05.650Z,67.47
2017-10-11T04:07:37.270Z,67.47
2017-10-11T04:08:08.972Z,67.47
2017-10-11T04:08:40.643Z,67.49
2017-10-11T04:09:12.303Z,67.49
2017-10-11T04:09:43.945Z,67.51
2017-10-11T04:10:15.605Z,67.50
2017-10-11T04:10:47.259Z,67.53
2017-10-11T04:11:18.955Z,67.56
2017-10-11T04:11:50.632Z,67.58
2017-10-11T04:12:22.318Z,67.62
2017-10-11T04:12:53.990Z,67.65
2017-10-11T04:13:25.639Z,67.63
2017-10-11T04:13:57.290Z,67.62
2017-10-11T04:14:28.941Z,67.62
2017-10-11T04:15:00.602Z,67.60
2017-10-11T04:15:32.258Z,67.59
2017-10-11T04:16:04.120Z,67.59
2017-10-11T04:16:35.792Z,67.60
2017-10-11T04:17:07.469Z,67.58
2017-10-11T04:17:39.130Z,67.58
2017-10-11T04:18:11.028Z,67.58
2017-10-11T04:18:42.691Z,67.57
2017-10-11T04:19:14.505Z,67.57
2017-10-11T04:19:46.158Z,67.57
2017-10-11T04:20:17.811Z,67.59
2017-10-11T04:20:49.476Z,67.58
2017-10-11T04:21:21.134Z,67.59
2017-10-11T04:21:52.829Z,67.59
2017-10-11T04:22:24.483Z,67.56
2017-10-11T04:22:56.135Z,67.60
2017-10-11T04:23:27.794Z,67.61
2017-10-11T04:23:59.450Z,67.61
2017-10-11T04:24:31.345Z,67.61
2017-10-11T04:25:03.005Z,67.61
2017-10-11T04:25:34.691Z,67.59
2017-10-11T04:26:06.578Z,67.63
2017-10-11T04:26:38.251Z,67.55
2017-10-11T04:27:09.981Z,67.52
2017-10-11T04:27:41.642Z,67.55
2017-10-11T04:28:13.309Z,67.56
2017-10-11T04:28:44.974Z,67.54
2017-10-11T04:29:16.635Z,67.56
2017-10-11T04:29:51.059Z,67.56
2017-10-11T04:30:22.722Z,67.56
2017-10-11T04:30:54.429Z,67.51
2017-10-11T04:31:26.098Z,67.56
2017-10-11T04:31:57.781Z,67.56
2017-10-11T04:32:29.499Z,67.55
2017-10-11T04:33:01.182Z,67.55
2017-10-11T04:33:32.797Z,67.48
2017-10-11T04:34:04.458Z,67.46
2017-10-11T04:34:36.160Z,67.45
2017-10-11T04:35:07.822Z,67.38
2017-10-11T04:35:39.493Z,67.35
2017-10-11T04:36:11.221Z,67.36
2017-10-11T04:36:42.878Z,67.30
2017-10-11T04:37:14.550Z,67.27
2017-10-11T04:37:46.231Z,67.26
2017-10-11T04:38:17.907Z,67.26
2017-10-11T04:38:49.571Z,67.21
2017-10-11T04:39:21.243Z,67.14
2017-10-11T04:39:52.903Z,67.13
2017-10-11T04:40:24.583Z,67.10
2017-10-11T04:40:56.246Z,67.08
2017-10-11T04:41:27.949Z,67.03
2017-10-11T04:41:59.613Z,67.02
2017-10-11T04:42:31.273Z,66.97
2017-10-11T04:43:02.981Z,66.92
2017-10-11T04:43:34.653Z,66.92
2017-10-11T04:44:06.309Z,66.93
2017-10-11T04:44:37.939Z,66.89
2017-10-11T04:45:09.605Z,66.85
2017-10-11T04:45:41.266Z,66.85
2017-10-11T04:46:12.931Z,66.81
2017-10-11T04:46:44.649Z,66.75
2017-10-11T04:47:16.315Z,66.71
2017-10-11T04:47:47.978Z,66.73
2017-10-11T04:48:19.640Z,66.70
2017-10-11T04:48:51.294Z,66.67
2017-10-11T04:49:22.950Z,66.62
2017-10-11T04:49:54.633Z,66.59
2017-10-11T04:50:26.299Z,66.56
2017-10-11T04:50:57.963Z,66.55
2017-10-11T04:51:29.616Z,66.50
2017-10-11T04:52:01.331Z,66.51
2017-10-11T04:52:32.994Z,66.52
2017-10-11T04:53:04.617Z,66.49
2017-10-11T04:53:36.268Z,66.49
2017-10-11T04:54:07.929Z,66.49
2017-10-11T04:54:39.581Z,66.45
2017-10-11T04:55:11.235Z,66.42
2017-10-11T04:55:42.890Z,66.44
2017-10-11T04:56:14.556Z,66.37
2017-10-11T04:56:46.211Z,66.35
2017-10-11T04:57:17.914Z,66.34
2017-10-11T04:57:49.574Z,66.32
2017-10-11T04:58:21.225Z,66.33
2017-10-11T04:58:52.882Z,66.33
2017-10-11T04:59:24.529Z,66.33
2017-10-11T04:59:56.183Z,66.28
2017-10-11T05:00:27.835Z,66.28
2017-10-11T05:00:59.490Z,66.27
2017-10-11T05:01:31.141Z,66.28
2017-10-11T05:02:02.791Z,66.30
2017-10-11T05:02:34.785Z,66.31
2017-10-11T05:03:06.447Z,66.27
2017-10-11T05:03:38.101Z,66.28
2017-10-11T05:04:09.755Z,66.27
2017-10-11T05:04:41.403Z,66.22
2017-10-11T05:05:13.064Z,66.17
2017-10-11T05:05:44.724Z,66.15
2017-10-11T05:06:16.393Z,66.16
2017-10-11T05:06:48.094Z,66.17
2017-10-11T05:07:19.758Z,66.18
2017-10-11T05:07:51.410Z,66.16
2017-10-11T05:08:23.062Z,66.17
2017-10-11T05:08:54.714Z,66.18
2017-10-11T05:09:26.369Z,66.22
2017-10-11T05:09:58.018Z,66.23
2017-10-11T05:10:29.674Z,66.25
2017-10-11T05:11:01.327Z,66.23
2017-10-11T05:11:32.983Z,66.27
2017-10-11T05:12:04.685Z,66.27
2017-10-11T05:12:36.333Z,66.23
2017-10-11T05:13:07.990Z,66.24
2017-10-11T05:13:39.821Z,66.23
2017-10-11T05:14:11.478Z,66.25
2017-10-11T05:14:43.132Z,66.24
2017-10-11T05:15:14.786Z,66.25
2017-10-11T05:15:46.442Z,66.26
2017-10-11T05:16:18.094Z,66.28
2017-10-11T05:16:49.746Z,66.29
2017-10-11T05:17:21.636Z,66.34
2017-10-11T05:17:53.297Z,66.34
2017-10-11T05:18:24.959Z,66.35
2017-10-11T05:18:56.618Z,66.35
2017-10-11T05:19:28.317Z,66.39
2017-10-11T05:20:00.060Z,66.39
2017-10-11T05:20:31.723Z,66.39
2017-10-11T05:21:03.377Z,66.38
2017-10-11T05:21:35.031Z,66.39
2017-10-11T05:22:06.686Z,66.37
2017-10-11T05:22:38.346Z,66.41
2017-10-11T05:23:09.996Z,66.42
2017-10-11T05:23:41.650Z,66.44
2017-10-11T05:24:13.342Z,66.47
2017-10-11T05:24:45.007Z,66.53
2017-10-11T05:25:16.649Z,66.53
2017-10-11T05:25:48.302Z,66.56
2017-10-11T05:26:20.209Z,66.61
2017-10-11T05:26:51.875Z,66.63
2017-10-11T05:27:23.529Z,66.65
2017-10-11T05:27:55.190Z,66.66
2017-10-11T05:28:26.846Z,66.65
2017-10-11T05:28:58.507Z,66.74
2017-10-11T05:29:30.173Z,66.75
2017-10-11T05:30:01.826Z,66.76
2017-10-11T05:30:33.479Z,66.77
2017-10-11T05:31:05.125Z,66.76
2017-10-11T05:31:36.740Z,66.80
2017-10-11T05:32:08.390Z,66.80
2017-10-11T05:32:40.043Z,66.84
2017-10-11T05:33:11.698Z,66.82
2017-10-11T05:33:43.403Z,66.77
2017-10-11T05:34:15.051Z,66.80
2017-10-11T05:34:46.702Z,66.81
2017-10-11T05:35:18.370Z,66.81
2017-10-11T05:35:50.036Z,66.81
2017-10-11T05:36:21.696Z,66.81
2017-10-11T05:36:53.354Z,66.77
2017-10-11T05:37:25.006Z,66.80
2017-10-11T05:37:56.658Z,66.82
2017-10-11T05:38:28.309Z,66.84
2017-10-11T05:39:00.024Z,66.82
2017-10-11T05:39:31.681Z,66.85
2017-10-11T05:40:03.338Z,66.88
2017-10-11T05:40:34.989Z,66.90
2017-10-11T05:41:06.643Z,66.88
2017-10-11T05:41:38.297Z,66.93
2017-10-11T05:42:10.083Z,66.96
2017-10-11T05:42:41.749Z,66.94
2017-10-11T05:43:13.403Z,66.95
2017-10-11T05:43:45.064Z,66.97
2017-10-11T05:44:16.760Z,66.94
2017-10-11T05:44:48.416Z,66.93
2017-10-11T05:45:20.059Z,66.96
2017-10-11T05:45:51.705Z,66.96
2017-10-11T05:46:23.358Z,66.95
2017-10-11T05:46:55.010Z,66.97
2017-10-11T05:47:26.695Z,67.00
2017-10-11T05:47:58.446Z,67.02
2017-10-11T05:48:30.102Z,66.97
2017-10-11T05:49:01.758Z,66.98
2017-10-11T05:49:33.405Z,66.98
2017-10-11T05:50:05.065Z,67.00
2017-10-11T05:50:36.961Z,66.98
2017-10-11T05:51:08.813Z,67.00
2017-10-11T05:51:40.462Z,67.02
2017-10-11T05:52:12.113Z,67.02
2017-10-11T05:52:43.753Z,67.03
2017-10-11T05:53:15.440Z,67.04
2017-10-11T05:53:47.089Z,67.04
2017-10-11T05:54:18.762Z,67.05
2017-10-11T05:54:50.421Z,67.02
2017-10-11T05:55:22.083Z,67.04
2017-10-11T05:55:53.725Z,67.05
2017-10-11T05:56:25.420Z,67.07
2017-10-11T05:56:57.269Z,67.09
2017-10-11T05:57:29.227Z,67.11
2017-10-11T05:58:00.879Z,67.11
2017-10-11T05:58:32.526Z,67.13
2017-10-11T05:59:04.173Z,67.11
2017-10-11T05:59:35.823Z,67.10
2017-10-11T06:00:07.469Z,67.10
2017-10-11T06:00:39.158Z,67.11
2017-10-11T06:01:11.030Z,67.09
2017-10-11T06:01:42.677Z,67.10
2017-10-11T06:02:14.322Z,67.11
2017-10-11T06:02:45.965Z,67.10
2017-10-11T06:03:17.619Z,67.09
2017-10-11T06:03:49.262Z,67.10
2017-10-11T06:04:21.148Z,67.08
2017-10-11T06:04:52.837Z,67.08
2017-10-11T06:05:24.493Z,67.02
2017-10-11T06:05:56.134Z,67.03
2017-10-11T06:06:27.835Z,67.01
2017-10-11T06:06:59.704Z,66.99
2017-10-11T06:07:31.361Z,66.93
2017-10-11T06:08:03.020Z,66.95
2017-10-11T06:08:34.670Z,66.91
2017-10-11T06:09:06.323Z,66.90
2017-10-11T06:09:37.976Z,66.89
2017-10-11T06:10:09.783Z,66.89
2017-10-11T06:10:41.444Z,66.89
2017-10-11T06:11:13.089Z,66.86
2017-10-11T06:11:44.789Z,66.82
2017-10-11T06:12:16.442Z,66.78
2017-10-11T06:12:48.093Z,66.77
2017-10-11T06:13:19.742Z,66.78
2017-10-11T06:13:51.385Z,66.76
2017-10-11T06:14:23.030Z,66.71
2017-10-11T06:14:54.681Z,66.72
2017-10-11T06:15:26.325Z,66.69
2017-10-11T06:15:57.975Z,66.66
2017-10-11T06:16:29.629Z,66.66
2017-10-11T06:17:01.337Z,66.65
2017-10-11T06:17:32.988Z,66.63
2017-10-11T06:18:04.641Z,66.57
2017-10-11T06:18:36.285Z,66.56
2017-10-11T06:19:07.934Z,66.53
2017-10-11T06:19:39.590Z,66.53
2017-10-11T06:20:11.366Z,66.52
2017-10-11T06:20:43.316Z,66.48
2017-10-11T06:21:14.965Z,66.44
2017-10-11T06:21:46.614Z,66.38
2017-10-11T06:22:18.301Z,66.37
2017-10-11T06:22:50.002Z,66.35
2017-10-11T06:23:21.646Z,66.36
2017-10-11T06:23:53.294Z,66.33
2017-10-11T06:24:24.941Z,66.33
2017-10-11T06:24:56.589Z,66.31
2017-10-11T06:25:28.241Z,66.26
2017-10-11T06:25:59.893Z,66.26
2017-10-11T06:26:31.685Z,66.24
2017-10-11T06:27:03.343Z,66.19
2017-10-11T06:27:35.010Z,66.22
2017-10-11T06:28:06.715Z,66.21
2017-10-11T06:28:38.361Z,66.23
2017-10-11T06:29:10.014Z,66.25
2017-10-11T06:29:41.669Z,66.25
2017-10-11T06:30:13.321Z,66.22
2017-10-11T06:30:44.970Z,66.18
2017-10-11T06:31:16.621Z,66.15
2017-10-11T06:31:48.412Z,66.14
2017-10-11T06:32:20.064Z,66.13
2017-10-11T06:32:51.713Z,66.10
2017-10-11T06:33:23.417Z,66.09
2017-10-11T06:33:55.286Z,66.07
2017-10-11T06:34:26.934Z,66.00
2017-10-11T06:34:58.590Z,65.98
2017-10-11T06:35:30.237Z,66.00
2017-10-11T06:36:01.882Z,65.97
2017-10-11T06:36:33.530Z,65.97
2017-10-11T06:37:05.174Z,65.95
2017-10-11T06:37:36.817Z,65.98
2017-10-11T06:38:08.466Z,65.98
2017-10-11T06:38:40.158Z,65.95
2017-10-11T06:39:11.817Z,65.97
2017-10-11T06:39:43.516Z,65.96
2017-10-11T06:40:15.174Z,65.98
2017-10-11T06:40:46.817Z,65.93
2017-10-11T06:41:18.578Z,65.91
2017-10-11T06:41:50.527Z,65.93
2017-10-11T06:42:22.218Z,65.93
2017-10-11T06:42:53.870Z,65.92
2017-10-11T06:43:25.537Z,65.92
2017-10-11T06:43:57.207Z,65.91
2017-10-11T06:44:28.862Z,65.91
2017-10-11T06:45:00.569Z,65.92
2017-10-11T06:45:32.219Z,65.91
2017-10-11T06:46:03.929Z,65.88
2017-10-11T06:46:35.592Z,65.90
2017-10-11T06:47:07.253Z,65.86
2017-10-11T06:47:38.906Z,65.90
2017-10-11T06:48:10.554Z,65.93